createdAt,value
2022-09-09T00:01:38.483Z,61.08
2022-09-09T00:04:29.307Z,61.18
2022-09-09T00:07:06.166Z,61.40
2022-09-09T00:09:47.182Z,61.31
2022-09-09T00:12:34.545Z,61.26
2022-09-09T00:15:20.777Z,61.63
2022-09-09T00:17:56.341Z,61.49
2022-09-09T00:20:27.187Z,61.74
2022-09-09T00:23:12.110Z,61.66
2022-09-09T00:26:05.740Z,61.86
2022-09-09T00:28:40.289Z,61.76
2022-09-09T00:31:21.965Z,62.04
2022-09-09T00:33:52.103Z,61.99
2022-09-09T00:36:25.419Z,62.21
2022-09-09T00:38:58.675Z,62.12
2022-09-09T00:42:10.764Z,62.28
2022-09-09T00:44:40.867Z,62.39
2022-09-09T00:47:40.775Z,62.39
2022-09-09T00:50:27.400Z,62.48
2022-09-09T00:53:01.378Z,62.61
2022-09-09T00:55:49.600Z,62.58
2022-09-09T00:58:17.554Z,62.81
2022-09-09T01:00:51.208Z,62.57
2022-09-09T01:03:41.514Z,62.72
2022-09-09T01:06:40.722Z,62.91
2022-09-09T01:09:18.463Z,63.04
2022-09-09T01:12:19.086Z,62.99
2022-09-09T01:14:53.518Z,63.01
2022-09-09T01:17:48.013Z,63.11
2022-09-09T01:20:28.653Z,63.20
2022-09-09T01:23:12.313Z,63.17
2022-09-09T01:26:19.625Z,63.20
2022-09-09T01:28:50.786Z,63.36
2022-09-09T01:31:24.010Z,63.48
2022-09-09T01:33:52.334Z,63.00
2022-09-09T01:36:36.338Z,63.27
2022-09-09T01:39:04.995Z,63.58
2022-09-09T01:41:33.301Z,63.48
2022-09-09T01:44:01.760Z,63.37
2022-09-09T01:46:30.514Z,63.50
2022-09-09T01:49:03.667Z,63.51
2022-09-09T01:51:32.438Z,63.77
2022-09-09T01:54:01.028Z,63.84
2022-09-09T01:56:44.086Z,63.89
2022-09-09T01:59:21.281Z,63.81
2022-09-09T02:02:09.986Z,64.02
2022-09-09T02:05:04.319Z,64.07
2022-09-09T02:07:41.539Z,64.25
2022-09-09T02:10:48.463Z,64.17
2022-09-09T02:13:19.703Z,64.26
2022-09-09T02:15:57.446Z,64.22
2022-09-09T02:19:26.949Z,64.35
2022-09-09T02:21:58.978Z,64.29
2022-09-09T02:24:28.766Z,64.43
2022-09-09T02:27:00.178Z,64.47
2022-09-09T02:29:42.661Z,64.35
2022-09-09T02:32:16.875Z,64.58
2022-09-09T02:34:50.025Z,64.59
2022-09-09T02:37:22.009Z,64.65
2022-09-09T02:39:50.367Z,64.59
2022-09-09T02:42:18.327Z,64.55
2022-09-09T02:44:46.780Z,64.73
2022-09-09T02:47:40.226Z,64.79
2022-09-09T02:50:37.722Z,64.87
2022-09-09T02:53:22.106Z,64.79
2022-09-09T02:56:14.970Z,64.87
2022-09-09T02:58:43.694Z,65.05
2022-09-09T03:01:12.752Z,64.98
2022-09-09T03:03:43.198Z,64.95
2022-09-09T03:06:13.208Z,65.09
2022-09-09T03:08:48.998Z,65.05
2022-09-09T03:11:18.374Z,65.12
2022-09-09T03:13:46.357Z,65.19
2022-09-09T03:16:14.069Z,65.17
2022-09-09T03:18:41.809Z,65.10
2022-09-09T03:21:09.475Z,65.32
2022-09-09T03:23:37.118Z,65.24
2022-09-09T03:26:04.803Z,65.33
2022-09-09T03:28:33.747Z,65.28
2022-09-09T03:31:03.831Z,65.48
2022-09-09T03:33:32.503Z,65.33
2022-09-09T03:36:00.259Z,65.24
2022-09-09T03:38:27.960Z,65.19
2022-09-09T03:40:58.584Z,65.34
2022-09-09T03:43:27.772Z,65.56
2022-09-09T03:45:59.156Z,65.43
2022-09-09T03:48:29.595Z,65.72
2022-09-09T03:50:59.364Z,65.76
2022-09-09T03:53:28.220Z,65.80
2022-09-09T03:56:01.139Z,65.83
2022-09-09T03:58:29.574Z,65.86
2022-09-09T04:01:00.778Z,65.69
2022-09-09T04:03:30.141Z,65.72
2022-09-09T04:06:01.318Z,66.07
2022-09-09T04:08:32.490Z,65.96
2022-09-09T04:11:02.819Z,66.04
2022-09-09T04:13:31.367Z,66.04
2022-09-09T04:16:01.080Z,66.12
2022-09-09T04:18:29.312Z,66.03
2022-09-09T04:20:58.900Z,66.30
2022-09-09T04:23:30.593Z,66.28
2022-09-09T04:26:00.180Z,66.26
2022-09-09T04:28:32.033Z,66.30
2022-09-09T04:31:19.094Z,66.41
2022-09-09T04:33:47.696Z,66.38
2022-09-09T04:36:15.524Z,66.42
2022-09-09T04:38:45.517Z,66.37
2022-09-09T04:41:14.171Z,66.45
2022-09-09T04:43:41.949Z,66.62
2022-09-09T04:46:10.431Z,66.56
2022-09-09T04:48:38.503Z,66.48
2022-09-09T04:51:08.476Z,66.74
2022-09-09T04:53:36.831Z,66.65
2022-09-09T04:56:07.918Z,66.73
2022-09-09T04:58:39.899Z,66.52
2022-09-09T05:01:25.837Z,66.73
2022-09-09T05:03:57.340Z,66.79
2022-09-09T05:06:26.495Z,66.79
2022-09-09T05:08:54.451Z,66.80
2022-09-09T05:11:27.909Z,66.83
2022-09-09T05:13:56.941Z,66.77
2022-09-09T05:16:28.004Z,66.97
2022-09-09T05:18:56.545Z,66.88
2022-09-09T05:21:29.303Z,67.01
2022-09-09T05:23:57.191Z,67.12
2022-09-09T05:26:28.409Z,67.06
2022-09-09T05:28:59.144Z,66.99
2022-09-09T05:31:29.708Z,67.18
2022-09-09T05:33:59.996Z,67.17
2022-09-09T05:36:29.348Z,67.16
2022-09-09T05:38:57.909Z,67.10
2022-09-09T05:41:25.846Z,67.29
2022-09-09T05:43:53.595Z,67.27
2022-09-09T05:46:26.438Z,67.50
2022-09-09T05:48:55.970Z,67.27
2022-09-09T05:51:28.319Z,67.44
2022-09-09T05:54:02.153Z,67.55
2022-09-09T05:56:34.168Z,67.49
2022-09-09T05:59:03.848Z,67.45
2022-09-09T06:01:37.688Z,67.45
2022-09-09T06:04:05.686Z,67.68
2022-09-09T06:06:41.016Z,67.67
2022-09-09T06:09:13.080Z,67.74
2022-09-09T06:11:43.556Z,67.81
2022-09-09T06:14:11.685Z,67.84
2022-09-09T06:16:40.780Z,67.99
2022-09-09T06:19:08.882Z,67.93
2022-09-09T06:21:41.928Z,67.67
2022-09-09T06:24:14.920Z,67.86
2022-09-09T06:26:46.492Z,68.07
2022-09-09T06:29:14.513Z,68.17
2022-09-09T06:31:45.800Z,68.36
2022-09-09T06:34:17.298Z,68.03
2022-09-09T06:36:50.277Z,68.19
2022-09-09T06:39:18.956Z,68.37
2022-09-09T06:41:54.170Z,68.13
2022-09-09T06:44:21.844Z,68.45
2022-09-09T06:46:49.825Z,68.28
2022-09-09T06:49:22.960Z,68.18
2022-09-09T06:51:54.468Z,68.51
2022-09-09T06:54:26.664Z,68.45
2022-09-09T06:56:55.807Z,68.53
2022-09-09T06:59:23.778Z,68.46
2022-09-09T07:01:56.518Z,68.33
2022-09-09T07:04:28.593Z,68.28
2022-09-09T07:06:56.528Z,68.49
2022-09-09T07:09:26.475Z,68.54
2022-09-09T07:11:59.561Z,68.34
2022-09-09T07:14:30.672Z,68.65
2022-09-09T07:16:59.806Z,68.39
2022-09-09T07:19:31.060Z,68.84
2022-09-09T07:21:58.971Z,68.61
2022-09-09T07:24:34.411Z,68.72
2022-09-09T07:27:02.360Z,68.86
2022-09-09T07:29:33.534Z,68.64
2022-09-09T07:32:01.630Z,68.71
2022-09-09T07:34:29.566Z,68.50
2022-09-09T07:37:01.942Z,68.31
2022-09-09T07:39:29.663Z,68.50
2022-09-09T07:42:00.805Z,68.77
2022-09-09T07:44:32.859Z,68.78
2022-09-09T07:47:00.835Z,68.73
2022-09-09T07:49:32.840Z,68.48
2022-09-09T07:52:04.647Z,68.35
2022-09-09T07:54:34.530Z,68.39
2022-09-09T07:57:05.904Z,67.70
2022-09-09T07:59:38.127Z,67.79
2022-09-09T08:02:10.654Z,67.21
2022-09-09T08:04:38.656Z,66.85
2022-09-09T08:07:08.446Z,67.49
2022-09-09T08:09:36.371Z,67.55
2022-09-09T08:12:04.511Z,67.86
2022-09-09T08:14:34.282Z,67.62
2022-09-09T08:17:02.252Z,67.66
2022-09-09T08:19:36.942Z,67.50
2022-09-09T08:22:05.002Z,67.34
2022-09-09T08:24:34.870Z,67.44
2022-09-09T08:27:04.654Z,67.34
2022-09-09T08:29:32.609Z,67.63
2022-09-09T08:32:03.938Z,67.77
2022-09-09T08:34:36.068Z,67.31
2022-09-09T08:37:04.126Z,67.03
2022-09-09T08:39:38.036Z,66.74
2022-09-09T08:42:17.270Z,66.69
2022-09-09T08:45:13.649Z,66.59
2022-09-09T08:48:00.016Z,66.77
2022-09-09T08:50:39.713Z,66.23
2022-09-09T08:53:43.034Z,66.18
2022-09-09T08:56:22.733Z,65.91
2022-09-09T08:58:55.544Z,65.78
2022-09-09T09:01:31.532Z,65.91
2022-09-09T09:03:59.491Z,66.00
2022-09-09T09:07:02.542Z,66.06
2022-09-09T09:09:38.598Z,65.70
2022-09-09T09:12:17.195Z,65.53
2022-09-09T09:14:50.702Z,65.59
2022-09-09T09:17:26.444Z,65.15
2022-09-09T09:19:58.137Z,65.12
2022-09-09T09:22:53.911Z,64.88
2022-09-09T09:25:42.483Z,64.70
2022-09-09T09:28:28.249Z,64.75
2022-09-09T09:31:15.017Z,64.85
2022-09-09T09:33:56.650Z,64.37
2022-09-09T09:36:39.378Z,64.15
2022-09-09T09:41:58.854Z,63.17
2022-09-09T09:44:32.170Z,63.36
2022-09-09T09:47:15.474Z,63.24
2022-09-09T09:49:57.081Z,63.00
2022-09-09T09:52:30.549Z,62.84
2022-09-09T09:55:07.545Z,62.88
2022-09-09T09:57:42.495Z,62.88
2022-09-09T10:00:19.919Z,62.38
2022-09-09T10:02:53.554Z,62.25
2022-09-09T10:05:35.586Z,62.25
2022-09-09T10:08:17.687Z,61.93
2022-09-09T10:11:22.203Z,61.78
2022-09-09T10:14:23.281Z,61.58
2022-09-09T10:17:11.390Z,61.30
2022-09-09T10:20:00.163Z,60.88
2022-09-09T10:22:36.760Z,60.82
2022-09-09T10:25:18.406Z,60.88
2022-09-09T10:28:34.022Z,60.71
2022-09-09T10:31:29.733Z,60.57
2022-09-09T10:34:07.449Z,60.49
2022-09-09T10:36:47.717Z,60.12
2022-09-09T10:39:18.389Z,60.16
2022-09-09T10:42:04.423Z,60.16
2022-09-09T10:44:57.236Z,59.92
2022-09-09T10:48:02.888Z,59.60
2022-09-09T10:51:01.133Z,59.67
2022-09-09T10:53:55.140Z,59.42
2022-09-09T10:56:28.200Z,59.47
2022-09-09T10:59:27.317Z,59.28
2022-09-09T11:02:11.163Z,59.17
2022-09-09T11:04:45.228Z,59.32
2022-09-09T11:07:29.904Z,59.24
2022-09-09T11:10:07.555Z,59.35
2022-09-09T11:12:41.652Z,58.72
2022-09-09T11:15:34.503Z,59.09
2022-09-09T11:18:15.774Z,58.99
2022-09-09T11:20:49.924Z,58.91
2022-09-09T11:23:31.524Z,58.84
2022-09-09T11:26:08.501Z,58.88
2022-09-09T11:29:19.516Z,58.84
2022-09-09T11:32:06.046Z,58.57
2022-09-09T11:35:03.611Z,58.62
2022-09-09T11:37:49.542Z,58.50
2022-09-09T11:40:35.335Z,58.63
2022-09-09T11:43:23.028Z,58.41
2022-09-09T11:46:01.352Z,58.60
2022-09-09T11:48:38.009Z,58.70
2022-09-09T11:51:19.862Z,58.53
2022-09-09T11:54:18.935Z,58.49
2022-09-09T11:56:50.240Z,58.29
2022-09-09T11:59:33.692Z,58.48
2022-09-09T12:02:08.094Z,58.29
2022-09-09T12:04:45.901Z,58.64
2022-09-09T12:07:45.088Z,58.36
2022-09-09T12:10:36.434Z,58.36
2022-09-09T12:13:25.819Z,58.49
2022-09-09T12:15:59.250Z,58.63
2022-09-09T12:18:46.833Z,58.52
2022-09-09T12:21:29.911Z,58.40
2022-09-09T12:24:07.270Z,58.37
2022-09-09T12:26:45.955Z,58.43
2022-09-09T12:29:19.843Z,58.32
2022-09-09T12:32:08.412Z,58.51
2022-09-09T12:34:58.202Z,58.40
2022-09-09T12:37:49.453Z,58.18
2022-09-09T12:40:37.380Z,58.33
2022-09-09T12:43:25.368Z,58.27
2022-09-09T12:46:02.033Z,58.10
2022-09-09T12:48:38.713Z,57.98
2022-09-09T12:51:28.791Z,58.00
2022-09-09T12:54:01.044Z,58.05
2022-09-09T12:56:34.564Z,58.19
2022-09-09T12:59:06.296Z,57.78
2022-09-09T13:01:37.916Z,57.93
2022-09-09T13:04:23.593Z,57.64
2022-09-09T13:06:56.641Z,57.58
2022-09-09T13:09:24.656Z,57.41
2022-09-09T13:11:59.478Z,57.36
2022-09-09T13:14:41.679Z,57.44
2022-09-09T13:17:21.264Z,57.45
2022-09-09T13:19:54.087Z,57.28
2022-09-09T13:22:37.085Z,57.24
2022-09-09T13:25:30.498Z,57.28
2022-09-09T13:28:05.963Z,57.12
2022-09-09T13:30:41.268Z,57.09
2022-09-09T13:33:12.268Z,56.94
2022-09-09T13:35:48.607Z,56.77
2022-09-09T13:38:19.155Z,56.93
2022-09-09T13:41:05.820Z,56.71
2022-09-09T13:43:48.439Z,56.78
2022-09-09T13:46:32.021Z,56.63
2022-09-09T13:49:13.139Z,56.67
2022-09-09T13:51:47.999Z,56.50
2022-09-09T13:54:20.591Z,56.45
2022-09-09T13:56:52.225Z,56.49
2022-09-09T13:59:23.199Z,56.33
2022-09-09T14:01:54.648Z,56.36
2022-09-09T14:04:22.330Z,56.35
2022-09-09T14:06:53.528Z,56.35
2022-09-09T14:09:24.890Z,56.29
2022-09-09T14:11:52.599Z,56.37
2022-09-09T14:14:27.495Z,56.38
2022-09-09T14:16:55.192Z,56.31
2022-09-09T14:19:26.312Z,56.31
2022-09-09T14:21:54.013Z,56.01
2022-09-09T14:24:21.736Z,56.21
2022-09-09T14:26:49.431Z,55.92
2022-09-09T14:29:26.098Z,56.17
2022-09-09T14:31:54.053Z,56.01
2022-09-09T14:34:21.972Z,56.13
2022-09-09T14:36:49.886Z,55.97
2022-09-09T14:39:17.828Z,56.04
2022-09-09T14:41:49.350Z,56.11
2022-09-09T14:44:21.210Z,55.87
2022-09-09T14:46:54.585Z,55.84
2022-09-09T14:49:25.779Z,55.96
2022-09-09T14:51:53.811Z,55.78
2022-09-09T14:54:27.351Z,55.58
2022-09-09T14:56:58.759Z,55.90
2022-09-09T14:59:26.533Z,55.96
2022-09-09T15:02:01.038Z,55.83
2022-09-09T15:04:29.030Z,55.81
2022-09-09T15:07:00.962Z,55.86
2022-09-09T15:09:28.630Z,55.64
2022-09-09T15:12:01.131Z,56.02
2022-09-09T15:14:29.857Z,55.84
2022-09-09T15:16:59.725Z,55.89
2022-09-09T15:19:30.727Z,55.64
2022-09-09T15:22:01.216Z,55.72
2022-09-09T15:24:29.143Z,55.88
2022-09-09T15:27:01.045Z,55.80
2022-09-09T15:29:32.619Z,55.60
2022-09-09T15:32:00.541Z,55.74
2022-09-09T15:34:30.305Z,55.85
2022-09-09T15:37:01.283Z,55.82
2022-09-09T15:39:35.757Z,56.00
2022-09-09T15:42:13.231Z,55.72
2022-09-09T15:44:47.751Z,55.93
2022-09-09T15:47:19.610Z,56.05
2022-09-09T15:49:47.342Z,55.96
2022-09-09T15:52:15.044Z,56.07
2022-09-09T15:54:50.073Z,56.18
2022-09-09T15:57:18.013Z,56.10
2022-09-09T15:59:47.588Z,56.00
2022-09-09T16:02:22.624Z,55.99
2022-09-09T16:04:50.682Z,56.36
2022-09-09T16:07:21.919Z,56.28
2022-09-09T16:09:53.878Z,56.10
2022-09-09T16:12:25.817Z,56.42
2022-09-09T16:14:53.724Z,56.10
2022-09-09T16:17:23.350Z,56.15
2022-09-09T16:19:58.702Z,56.37
2022-09-09T16:22:26.626Z,56.29
2022-09-09T16:24:56.310Z,56.09
2022-09-09T16:27:24.426Z,56.27
2022-09-09T16:29:54.456Z,56.43
2022-09-09T16:32:25.592Z,56.48
2022-09-09T16:34:53.373Z,56.69
2022-09-09T16:37:21.054Z,56.76
2022-09-09T16:39:48.996Z,56.81
2022-09-09T16:42:18.805Z,56.52
2022-09-09T16:44:46.853Z,56.89
2022-09-09T16:47:14.538Z,56.86
2022-09-09T16:49:45.723Z,56.59
2022-09-09T16:52:17.108Z,56.63
2022-09-09T16:54:48.338Z,56.97
2022-09-09T16:57:17.942Z,56.93
2022-09-09T16:59:45.661Z,57.06
2022-09-09T17:02:13.501Z,57.04
2022-09-09T17:04:45.187Z,57.14
2022-09-09T17:07:14.957Z,57.36
2022-09-09T17:09:48.850Z,57.38
2022-09-09T17:12:20.686Z,57.43
2022-09-09T17:14:52.121Z,57.57
2022-09-09T17:17:31.695Z,57.53
2022-09-09T17:20:08.139Z,57.64
2022-09-09T17:22:39.387Z,57.72
2022-09-09T17:25:09.711Z,57.74
2022-09-09T17:27:40.458Z,57.72
2022-09-09T17:30:11.935Z,57.83
2022-09-09T17:32:39.858Z,57.92
2022-09-09T17:35:10.456Z,57.96
2022-09-09T17:37:38.552Z,58.09
2022-09-09T17:40:10.131Z,58.12
2022-09-09T17:42:39.826Z,58.21
2022-09-09T17:45:10.971Z,58.35
2022-09-09T17:47:42.154Z,58.31
2022-09-09T17:50:13.886Z,58.42
2022-09-09T17:52:43.859Z,58.64
2022-09-09T17:55:13.710Z,58.64
2022-09-09T17:57:47.297Z,58.66
2022-09-09T18:00:18.339Z,58.83
2022-09-09T18:02:46.451Z,58.84
2022-09-09T18:05:17.219Z,58.82
2022-09-09T18:07:52.485Z,58.79
2022-09-09T18:10:20.439Z,59.09
2022-09-09T18:12:48.377Z,59.11
2022-09-09T18:15:33.336Z,59.17
2022-09-09T18:18:11.597Z,59.26
2022-09-09T18:20:39.519Z,59.22
2022-09-09T18:23:10.890Z,59.42
2022-09-09T18:25:40.322Z,59.54
2022-09-09T18:28:09.222Z,59.60
2022-09-09T18:30:40.668Z,59.74
2022-09-09T18:33:09.161Z,59.73
2022-09-09T18:35:41.626Z,59.86
2022-09-09T18:38:11.321Z,60.02
2022-09-09T18:40:39.371Z,60.01
2022-09-09T18:43:11.558Z,60.07
2022-09-09T18:45:42.905Z,60.12
2022-09-09T18:48:10.806Z,60.12
2022-09-09T18:50:38.778Z,60.28
2022-09-09T18:53:10.149Z,60.16
2022-09-09T18:55:41.435Z,60.44
2022-09-09T18:58:09.189Z,60.46
2022-09-09T19:00:40.511Z,60.49
2022-09-09T19:03:10.361Z,60.58
2022-09-09T19:05:41.240Z,60.46
2022-09-09T19:08:09.180Z,60.56
2022-09-09T19:10:40.613Z,60.73
2022-09-09T19:13:08.791Z,60.69
2022-09-09T19:15:42.207Z,60.72
2022-09-09T19:18:10.971Z,60.94
2022-09-09T19:20:42.318Z,60.95
2022-09-09T19:23:10.265Z,61.05
2022-09-09T19:25:40.219Z,61.09
2022-09-09T19:28:08.159Z,60.96
2022-09-09T19:30:39.751Z,61.23
2022-09-09T19:33:11.505Z,61.31
2022-09-09T19:35:39.324Z,61.30
2022-09-09T19:38:11.206Z,61.44
2022-09-09T19:40:43.713Z,61.59
2022-09-09T19:43:11.545Z,61.53
2022-09-09T19:45:39.646Z,61.55
2022-09-09T19:48:11.988Z,61.81
2022-09-09T19:50:41.867Z,61.93
2022-09-09T19:53:10.166Z,61.92
2022-09-09T19:55:41.534Z,61.92
2022-09-09T19:58:09.537Z,61.81
2022-09-09T20:00:42.385Z,61.89
2022-09-09T20:03:19.215Z,62.05
2022-09-09T20:05:50.156Z,62.05
2022-09-09T20:08:18.199Z,62.07
2022-09-09T20:10:56.050Z,62.04
2022-09-09T20:13:24.974Z,62.32
2022-09-09T20:16:03.661Z,62.36
2022-09-09T20:18:33.808Z,62.30
2022-09-09T20:21:07.616Z,62.33
2022-09-09T20:23:35.815Z,62.62
2022-09-09T20:26:08.487Z,62.54
2022-09-09T20:28:41.318Z,62.69
2022-09-09T20:31:19.364Z,62.69
2022-09-09T20:33:52.244Z,62.74
2022-09-09T20:36:28.200Z,62.81
2022-09-09T20:39:02.263Z,62.85
2022-09-09T20:41:36.321Z,62.99
2022-09-09T20:44:09.148Z,62.89
2022-09-09T20:46:41.045Z,62.99
2022-09-09T20:49:11.417Z,63.15
2022-09-09T20:51:40.194Z,63.24
2022-09-09T20:54:12.423Z,63.10
2022-09-09T20:56:42.543Z,63.25
2022-09-09T20:59:16.893Z,63.32
2022-09-09T21:01:47.463Z,63.36
2022-09-09T21:04:17.689Z,63.44
2022-09-09T21:06:46.659Z,63.48
2022-09-09T21:09:14.572Z,63.55
2022-09-09T21:11:42.541Z,63.66
2022-09-09T21:14:10.918Z,63.81
2022-09-09T21:16:38.836Z,63.85
2022-09-09T21:19:06.966Z,63.77
2022-09-09T21:21:36.363Z,63.85
2022-09-09T21:24:04.739Z,64.07
2022-09-09T21:26:33.175Z,63.88
2022-09-09T21:29:01.456Z,64.10
2022-09-09T21:31:30.013Z,64.35
2022-09-09T21:33:58.269Z,64.18
2022-09-09T21:36:28.697Z,64.36
2022-09-09T21:38:59.432Z,64.25
2022-09-09T21:41:28.397Z,64.41
2022-09-09T21:43:57.131Z,64.53
2022-09-09T21:46:27.784Z,64.31
2022-09-09T21:48:58.181Z,64.72
2022-09-09T21:51:25.946Z,64.56
2022-09-09T21:53:56.644Z,64.60
2022-09-09T21:56:27.432Z,64.61
2022-09-09T21:58:58.579Z,64.76
2022-09-09T22:01:26.821Z,64.93
2022-09-09T22:03:56.254Z,64.92
2022-09-09T22:06:24.870Z,65.04
2022-09-09T22:08:59.025Z,64.91
2022-09-09T22:11:27.117Z,65.09
2022-09-09T22:13:56.818Z,65.20
2022-09-09T22:16:26.474Z,65.10
2022-09-09T22:18:58.373Z,65.18
2022-09-09T22:21:30.442Z,65.38
2022-09-09T22:24:02.204Z,65.28
2022-09-09T22:26:34.763Z,65.29
2022-09-09T22:29:05.020Z,65.41
2022-09-09T22:31:36.127Z,65.50
2022-09-09T22:34:05.760Z,65.57
2022-09-09T22:36:34.978Z,65.56
2022-09-09T22:39:05.679Z,65.69
2022-09-09T22:41:34.048Z,65.51
2022-09-09T22:44:03.495Z,65.68
2022-09-09T22:46:31.504Z,65.83
2022-09-09T22:49:03.729Z,65.73
2022-09-09T22:51:35.463Z,65.89
2022-09-09T22:54:05.538Z,65.82
2022-09-09T22:56:33.896Z,65.96
2022-09-09T22:59:02.653Z,65.90
2022-09-09T23:01:31.666Z,66.01
2022-09-09T23:04:03.217Z,66.15
2022-09-09T23:06:32.720Z,66.01
2022-09-09T23:09:03.952Z,66.22
2022-09-09T23:11:37.552Z,66.17
2022-09-09T23:14:10.799Z,66.17
2022-09-09T23:16:44.055Z,66.24
2022-09-09T23:19:16.740Z,66.47
2022-09-09T23:21:47.161Z,66.32
2022-09-09T23:24:19.089Z,66.32
2022-09-09T23:26:48.394Z,66.27
2022-09-09T23:29:16.899Z,66.41
2022-09-09T23:31:46.825Z,66.50
2022-09-09T23:34:16.269Z,66.71
2022-09-09T23:36:45.074Z,66.64
2022-09-09T23:39:13.842Z,66.68
2022-09-09T23:41:41.587Z,66.62
2022-09-09T23:44:13.472Z,66.68
2022-09-09T23:46:41.611Z,66.84
2022-09-09T23:49:11.266Z,66.88
2022-09-09T23:51:39.963Z,66.76
2022-09-09T23:54:10.578Z,66.60
2022-09-09T23:56:42.413Z,66.63
2022-09-09T23:59:11.216Z,66.94
